Record high temperature 100.8°F Record low temperature -75.5°F Record high gust 121.0 mph Record high average 61.8 mph Record daily rain 2.61 in. Record low windchill -106.6°F Record high barometer 31.889 in. Record low barometer 23.642 in.
Daily high pressure 30.307 in. Daily low pressure 30.049 in. Daily low windchill 38.7°F Daily high heat index 60.4°F Daily high gust speed 27.3 mph NNW Daily high average speed 16.7 mph NNW
Weather Data
LAST READING AT TIME: 10:10 AM DATE: March 29 2015, time of next update: 10:20 am
Current WeatherDry Current Temperature 54.6°F (12.6°C), Apparent temp 47.6°F
Maximum Temperature (since midnight)60.4°F at: 2:46 AM Minimum Temperature (since midnight)44.2°F at: 7:15 AM
Average windspeed (ten minute)7.5 mph Wind Direction (ten minute)NNW (346°)
Windchill Temperature 54.6°F Maximum Gust (last hour)19.9 mph at: 9:43 AM
Maximum Gust (since midnight)27.3 mph at: 2:35 AM Maximum 1 minute average (since midnight)16.7 mph at: 2:39 AM
Rainfall (last hour)0.00 in. (0.0 mm) Rainfall (since midnight)0.00 in. (0.0 mm) ---
Rainfall This month 0.22 in. (5.6 mm) Rainfall To date this year 1.80 in. (45.7 mm)
Maximum rain per minute (last hour)0.00 in/min Maximum rain per hour (last 6 hours)0.00 in/hour
Yesterdays rainfall 0.00 in DewPoint 21.2°F (Wet Bulb :42.6°F )
Humidity 27 %, Humidex 48.5°F Barometer corrected to msl30.307 in. (1026.3 hPa)
Pressure change +0.02 in. (last hour) Trend (last hour)RISING SLOWLY
Pressure change (last 12 hours)+0.27 in Pressure change (last 6 hours)+0.20 in

This page is updated from recent data collected by a DAVIS WMII weather station Use the Reload or Refresh facility on your browser to retrieve the latest data.


Click here for the last 24 hour graph
Click here for the last 48 hour graph
Click here for the last 72 hour graph
Click here for the month to date graph


Weather report/warning/Metars

COLORADO SPRINGS MUNI, CO, United States (KCOS) 38-49N 104-43W 1856M
Mar 29, 2015 - 10:54 AM EDT / 2015.03.29 1454 UTC
Wind: from the N (360 degrees) at 14 MPH (12 KT):0
Visibility: 9 mile(s):0
Sky conditions: mostly clear
Temperature: 48.9 F (9.4 C)
Dew Point: 19.0 F (-7.2 C)
Relative Humidity: 30%
Pressure (altimeter): 30.32 in. Hg (1026 hPa)
Pressure tendency: 0.12 inches (4.0 hPa) higher than three hours ago
ob: KCOS 291454Z 36012KT 9SM FEW160 FEW180 09/M07 A3032 RMK AO2 SLP216 HZ ALQDS T00941072 51040
cycle: 15
Air Force Academy, CO, United States (KAFF) 38-58N 104-49W 1999M
Mar 29, 2015 - 10:58 AM EDT / 2015.03.29 1458 UTC
Wind: from the NNW (340 degrees) at 16 MPH (14 KT):0
Visibility: 10 mile(s):0
Sky conditions: clear
Temperature: 45.1 F (7.3 C)
Dew Point: 18.9 F (-7.3 C)
Relative Humidity: 34%
Pressure (altimeter): 30.31 in. Hg (1026 hPa)
Pressure tendency: 0.12 inches (3.9 hPa) higher than three hours ago
ob: KAFF 291458Z AUTO 34014KT 10SM CLR 07/M07 A3031 RMK AO2 SLP216 T00731073 51039
cycle: 15
Fort Carson, CO, United States (KFCS) 38-42N 104-46W 1789M
Mar 29, 2015 - 09:58 AM EDT / 2015.03.29 1358 UTC
Wind: from the N (360 degrees) at 23 MPH (20 KT) gusting to 29 MPH (25 KT):0
Visibility: 10 mile(s):0
Sky conditions: clear
Temperature: 47.1 F (8.4 C)
Dew Point: 19.4 F (-7.0 C)
Relative Humidity: 32%
Pressure (altimeter): 30.27 in. Hg (1025 hPa)
ob: KFCS 291358Z AUTO 36020G25KT 10SM CLR 08/M07 A3027 RMK AO2 PK WND 02030/36 SLP226 T00841070 
cycle: 14



The data is logged at two minute intervals, but there is data recorded every minute. Best viewed in 800 x 600 and True colour.

Use the RELOAD facility on your browser to retrieve the latest data.

Click here for a daily update of the averages/extremes to date for the month
Created by "Weather Display" software version 10.37R Build 78 at this start time/date 03:17 am 3/25/2015